Current Conditions

Updated: 23-Mar-2017 09:10 AM  
Summary / Temperature Wind Rain






Feels like: 51°F

1-hour difference
3.0°F 3.0°F warmer than last hour.

24-hour difference
8.0°F8.0°F colder than yesterday at this time.

  Today Yesterday
High: 51.6°F
12:00 AM
66.6°F
12:08 PM
Low: 44.9°F
6:02 AM
49.6°F
9:10 PM
Calm N
0.0
Gust:  0.0 mph
0 Beaufort - Calm

Today: 4.0 - 2:22 AM
Month: 16.1 mph - Mar 22
Rain Today: 0.00 in
Current Rate (/hr): 0.000 in
Max Rate (/hr):
Rain Yesterday: 0.11 in
Storm Rain: 0.11 in
This Month: 0.58 in
Season Total: 10.78 in
Last Rain Event: Today
Humidity / Barometer Sun / Moon
Humidity: 87 Decreased 7.0% in the last hour.
Dew Point: 46.9°F Increased 1.0°F in the last hour.
Barometer: 30.211 inHg  
Baro Trend: Rising slowly
Sunrise: 6:54 AM
Sunset: 7:10 PM
Moonrise: 4:05 AM
Moonset: 2:45 PM
Sky Conditions UV Index
Summary: Clear
Visibility: 10 miles
Clouds: None
KPTV - 8:56 AM PDT
Current: 2.0  Low 
Thursday: 6.3  High 
Friday: 7.0  High 
Air Quality Fire Danger
 Good 
Ozone 17 ppb
PM 2.5 6 μg/m3
9:10 AM PDT
Current: 0  Low 

Local Alerts Local Forecast
Local NWS Alerts
Today

Partly
Cloudy
High 64
Tonight

Partly
Cloudy
Low 43
Fri

Rain
Showers
High 73
Fri night

Chance of
Rain
Low 48
Sat

Rain
Showers
High 68
Sat night

Partly
Cloudy
Low 46
Sun

Rain
Showers
High 68

Local Radar Local Satellite Neighborhood Cam Sky Cam
Local Radar Local Satellite Neighborhood Cam Sky Cam


Nearby Personal Stations

Weather Underground PWS KCAPORTE11     Weather Underground PWS KCAPORTE8

Nearby Airport Stations

KPTV - Porterville, California, USA
Distance from station: SSW 4mi, 7km
Updated: Thu, 23-Mar-2017 8:56am PDT
Clear
Clear
 Wind from WNW
Wind: WNW 3 mph , 6 km/h
Temperature: 48°F , 9°C
Dew Point: 45°F , 7°C
Humidity: 87%
Barometer: 30.22 inHg , 1023.4 hPa
Clouds: Clear
Visibility: 10 miles , 16 km
2017/03/23 15:56 KPTV 231556Z AUTO 30003KT 10SM CLR 09/07 A3022 RMK AO2 SLP250 T00940072
KVIS - Visalia, California, USA
Distance from station: NW 27mi, 43km
Updated: Thu, 23-Mar-2017 8:56am PDT
Clear
Clear
 Wind from W
Wind: W 3 mph , 6 km/h
Temperature: 48°F , 9°C
Dew Point: 45°F , 7°C
Humidity: 87%
Barometer: 30.22 inHg , 1023.4 hPa
Clouds: Clear
Visibility: 10 miles , 16 km
2017/03/23 15:56 KVIS 231556Z AUTO 27003KT 10SM CLR 09/07 A3022 RMK AO2 SLP243 T00890067

Metar display script from Saratoga-Weather.org



Visitor Map